Time;durP1;ratioP1;P1;durP2;ratioP2;P2;SDS_P1;SDS_P2;PMS_P1;PMS_P2;Temp;Humidity;BMP_temperature;BMP_pressure;BME280_temperature;BME280_humidity;BME280_pressure;Samples;Min_cycle;Max_cycle;Signal;HPM_P1;HPM_P2
2021/07/02 00:01:37;;;;;;;25.98;15.57;;;;;;;;;;5076941;28;20055;-47
2021/07/02 00:04:04;;;;;;;33.60;23.13;;;;;;;;;;5076974;28;20028;-46
2021/07/02 00:06:30;;;;;;;6.93;5.00;;;;;;;;;;5076975;28;20020;-46
2021/07/02 00:08:58;;;;;;;17.38;10.52;;;;;;;;;;5076787;28;20545;-47
2021/07/02 00:11:25;;;;;;;8.68;3.58;;;;;;;;;;5076743;28;20025;-47
2021/07/02 00:13:51;;;;;;;75.43;37.13;;;;;;;;;;5076244;28;20048;-45
2021/07/02 00:16:17;;;;;;;45.10;26.92;;;;;;;;;;5076729;28;20044;-45
2021/07/02 00:18:43;;;;;;;11.15;8.07;;;;;;;;;;5076800;28;20024;-46
2021/07/02 00:21:10;;;;;;;4.25;1.77;;;;;;;;;;5076682;28;20021;-45
2021/07/02 00:23:36;;;;;;;0.82;0.60;;;;;;;;;;5076785;28;20043;-46
2021/07/02 00:26:02;;;;;;;1.17;0.50;;;;;;;;;;5075164;28;20028;-46
2021/07/02 00:28:28;;;;;;;0.68;0.43;;;;;;;;;;5076326;28;20020;-46
2021/07/02 00:30:54;;;;;;;1.83;0.35;;;;;;;;;;5076387;28;20028;-46
2021/07/02 00:33:20;;;;;;;3.70;0.73;;;;;;;;;;5076376;28;20108;-46
2021/07/02 00:35:46;;;;;;;6.22;1.67;;;;;;;;;;5076454;28;20485;-45
2021/07/02 00:38:13;;;;;;;33.70;23.27;;;;;;;;;;5076403;28;20028;-43
2021/07/02 00:40:39;;;;;;;45.58;27.75;;;;;;;;;;5076152;28;20021;-44
2021/07/02 00:43:05;;;;;;;37.13;20.95;;;;;;;;;;5075903;28;20024;-45
2021/07/02 00:45:33;;;;;;;46.30;29.17;;;;;;;;;;5076042;28;20029;-44
2021/07/02 00:47:59;;;;;;;16.08;10.55;;;;;;;;;;5076161;28;20025;-45
2021/07/02 00:50:25;;;;;;;25.70;15.57;;;;;;;;;;5075985;28;20028;-44
2021/07/02 00:52:52;;;;;;;26.67;16.88;;;;;;;;;;5075943;28;20385;-44
2021/07/02 00:55:20;;;;;;;3.50;2.53;;;;;;;;;;5075929;28;20033;-45
2021/07/02 00:57:47;;;;;;;9.07;4.47;;;;;;;;;;5075738;28;20017;-44
2021/07/02 01:00:13;;;;;;;17.40;6.88;;;;;;;;;;5074897;28;20456;-44
2021/07/02 01:02:39;;;;;;;42.17;19.77;;;;;;;;;;5075450;28;20039;-44
2021/07/02 01:05:07;;;;;;;10.25;5.43;;;;;;;;;;5075783;28;20522;-43
2021/07/02 01:07:33;;;;;;;5.70;2.95;;;;;;;;;;5075800;28;20128;-44
2021/07/02 01:09:59;;;;;;;15.52;11.02;;;;;;;;;;5075725;28;20024;-44
2021/07/02 01:12:26;;;;;;;43.38;23.80;;;;;;;;;;5075653;28;20040;-44
2021/07/02 01:14:52;;;;;;;60.63;32.00;;;;;;;;;;5075171;28;20036;-44
2021/07/02 01:17:19;;;;;;;58.67;31.67;;;;;;;;;;5075594;28;20060;-44
2021/07/02 01:19:49;;;;;;;20.27;7.95;;;;;;;;;;5074289;28;20479;-44
2021/07/02 01:22:17;;;;;;;7.77;3.60;;;;;;;;;;5075334;28;20474;-43
2021/07/02 01:24:43;;;;;;;32.45;19.55;;;;;;;;;;5075303;28;20484;-44
2021/07/02 01:27:10;;;;;;;45.83;26.52;;;;;;;;;;5075193;28;20024;-44
2021/07/02 01:29:36;;;;;;;49.83;29.90;;;;;;;;;;5075216;28;20033;-44
2021/07/02 01:32:02;;;;;;;12.25;7.78;;;;;;;;;;5075192;28;20036;-45
2021/07/02 01:34:28;;;;;;;7.82;3.20;;;;;;;;;;5075311;28;20350;-44
2021/07/02 01:36:54;;;;;;;3.05;1.92;;;;;;;;;;5075286;28;20074;-44
2021/07/02 01:39:21;;;;;;;1.50;0.90;;;;;;;;;;5074042;28;20040;-44
2021/07/02 01:41:47;;;;;;;1.98;1.20;;;;;;;;;;5075192;28;20021;-44
2021/07/02 01:44:13;;;;;;;5.05;1.02;;;;;;;;;;5074853;28;20089;-44
2021/07/02 01:46:39;;;;;;;1.67;0.82;;;;;;;;;;5075058;28;20035;-44
2021/07/02 01:49:05;;;;;;;1.63;0.73;;;;;;;;;;5074885;28;20021;-44
2021/07/02 01:51:31;;;;;;;9.35;3.08;;;;;;;;;;5074700;28;20075;-44
2021/07/02 01:53:57;;;;;;;69.10;36.03;;;;;;;;;;5074864;28;20387;-44
2021/07/02 01:56:23;;;;;;;176.32;107.93;;;;;;;;;;5074707;28;20017;-44
2021/07/02 01:58:50;;;;;;;61.25;37.47;;;;;;;;;;5074619;28;20017;-44
2021/07/02 02:01:16;;;;;;;19.73;10.90;;;;;;;;;;5074622;28;20512;-45
2021/07/02 02:03:43;;;;;;;29.15;18.05;;;;;;;;;;5074724;28;20028;-43
2021/07/02 02:06:09;;;;;;;31.10;16.92;;;;;;;;;;5074659;28;20031;-44
2021/07/02 02:08:35;;;;;;;33.72;20.00;;;;;;;;;;5074512;28;20025;-44
2021/07/02 02:11:01;;;;;;;16.63;10.52;;;;;;;;;;5074557;28;20111;-44
2021/07/02 02:13:27;;;;;;;45.67;26.48;;;;;;;;;;5073748;28;20040;-44
2021/07/02 02:15:53;;;;;;;18.88;11.40;;;;;;;;;;5074268;28;20778;-44
2021/07/02 02:18:19;;;;;;;27.55;16.63;;;;;;;;;;5074324;28;20389;-44
2021/07/02 02:20:45;;;;;;;9.98;6.72;;;;;;;;;;5074297;28;20481;-44
2021/07/02 02:23:12;;;;;;;3.03;2.17;;;;;;;;;;5074316;28;20040;-43
2021/07/02 02:25:38;;;;;;;2.90;1.92;;;;;;;;;;5074256;28;20098;-44
2021/07/02 02:28:04;;;;;;;0.93;0.80;;;;;;;;;;5074089;28;20031;-44
2021/07/02 02:30:30;;;;;;;4.30;1.35;;;;;;;;;;5074245;28;20017;-44
2021/07/02 02:32:57;;;;;;;2.08;0.82;;;;;;;;;;5073996;28;20036;-43
2021/07/02 02:35:23;;;;;;;0.80;0.60;;;;;;;;;;5073991;28;20100;-44
2021/07/02 02:37:50;;;;;;;1.33;0.90;;;;;;;;;;5074277;28;20067;-43
2021/07/02 02:40:16;;;;;;;0.80;0.45;;;;;;;;;;5074053;28;20020;-44
2021/07/02 02:42:42;;;;;;;2.03;0.80;;;;;;;;;;5073869;28;20024;-44
2021/07/02 02:45:08;;;;;;;4.85;0.60;;;;;;;;;;5073931;28;20028;-44
2021/07/02 02:47:34;;;;;;;1.92;0.30;;;;;;;;;;5073836;28;20032;-44
2021/07/02 02:50:00;;;;;;;0.30;0.30;;;;;;;;;;5073808;28;20016;-43
2021/07/02 02:52:26;;;;;;;4.28;0.32;;;;;;;;;;5073696;28;20618;-43
2021/07/02 02:54:52;;;;;;;0.22;0.20;;;;;;;;;;5073724;28;20031;-44
2021/07/02 02:57:18;;;;;;;1.55;0.20;;;;;;;;;;5073634;28;20024;-43
2021/07/02 02:59:45;;;;;;;1.73;0.40;;;;;;;;;;5073406;28;20396;-44
2021/07/02 03:02:13;;;;;;;1.92;0.47;;;;;;;;;;5073864;28;20088;-44
2021/07/02 03:04:39;;;;;;;1.25;0.65;;;;;;;;;;5073896;28;20024;-44
2021/07/02 03:07:05;;;;;;;1.05;0.30;;;;;;;;;;5073723;28;20020;-44
2021/07/02 03:09:32;;;;;;;0.50;0.30;;;;;;;;;;5073595;28;20035;-43
2021/07/02 03:11:58;;;;;;;0.93;0.40;;;;;;;;;;5073468;28;20044;-43
2021/07/02 03:14:24;;;;;;;0.50;0.28;;;;;;;;;;5073189;28;20153;-43
2021/07/02 03:16:50;;;;;;;0.38;0.30;;;;;;;;;;5073590;28;20107;-44
2021/07/02 03:19:16;;;;;;;1.90;0.30;;;;;;;;;;5073544;28;20028;-44
2021/07/02 03:21:42;;;;;;;0.73;0.38;;;;;;;;;;5073359;28;20063;-44
2021/07/02 03:24:09;;;;;;;3.30;0.28;;;;;;;;;;5072681;28;20461;-44
2021/07/02 03:26:35;;;;;;;0.70;0.40;;;;;;;;;;5073368;28;20063;-44
2021/07/02 03:29:02;;;;;;;1.17;0.30;;;;;;;;;;5073247;28;20081;-44
2021/07/02 03:31:28;;;;;;;2.85;0.32;;;;;;;;;;5073342;28;20468;-44
2021/07/02 03:33:54;;;;;;;2.10;0.50;;;;;;;;;;5073174;28;20047;-44
2021/07/02 03:36:20;;;;;;;0.68;0.43;;;;;;;;;;5073210;28;20021;-44
2021/07/02 03:38:46;;;;;;;0.50;0.43;;;;;;;;;;5073443;28;20392;-43
2021/07/02 03:41:12;;;;;;;0.75;0.40;;;;;;;;;;5073181;28;20021;-44
2021/07/02 03:43:38;;;;;;;1.40;0.60;;;;;;;;;;5072921;28;20548;-44
2021/07/02 03:46:04;;;;;;;0.40;0.30;;;;;;;;;;5073262;28;20052;-44
2021/07/02 03:48:31;;;;;;;0.93;0.40;;;;;;;;;;5073011;28;20021;-44
2021/07/02 03:50:57;;;;;;;1.02;0.45;;;;;;;;;;5073119;28;20032;-44
2021/07/02 03:53:23;;;;;;;3.80;0.30;;;;;;;;;;5073091;28;20079;-44
2021/07/02 03:55:49;;;;;;;1.77;0.60;;;;;;;;;;5073090;28;20354;-44
2021/07/02 03:58:15;;;;;;;2.22;0.40;;;;;;;;;;5073047;28;20480;-44
2021/07/02 04:00:41;;;;;;;1.35;0.35;;;;;;;;;;5072806;28;20073;-46
2021/07/02 04:03:07;;;;;;;1.00;0.40;;;;;;;;;;5073187;28;20029;-45
2021/07/02 04:05:34;;;;;;;0.30;0.30;;;;;;;;;;5073071;28;20021;-44
2021/07/02 04:08:00;;;;;;;0.30;0.30;;;;;;;;;;5072886;28;20028;-44
2021/07/02 04:10:26;;;;;;;2.50;0.95;;;;;;;;;;5073054;28;20024;-44
2021/07/02 04:12:52;;;;;;;1.67;0.73;;;;;;;;;;5072625;28;20047;-44
2021/07/02 04:15:18;;;;;;;4.85;2.33;;;;;;;;;;5072604;28;20048;-44
2021/07/02 04:17:44;;;;;;;1.63;1.00;;;;;;;;;;5072978;28;20030;-43
2021/07/02 04:20:11;;;;;;;5.93;2.60;;;;;;;;;;5073023;28;20111;-44
2021/07/02 04:22:38;;;;;;;4.40;1.60;;;;;;;;;;5072931;28;20020;-44
2021/07/02 04:25:06;;;;;;;5.82;0.63;;;;;;;;;;5072677;28;20025;-44
2021/07/02 04:27:32;;;;;;;3.67;1.60;;;;;;;;;;5073038;28;20029;-44
2021/07/02 04:29:58;;;;;;;1.63;1.00;;;;;;;;;;5072663;28;20048;-44
2021/07/02 04:32:24;;;;;;;26.35;15.30;;;;;;;;;;5072467;28;20039;-45
2021/07/02 04:34:50;;;;;;;31.08;19.05;;;;;;;;;;5073332;28;20031;-44
2021/07/02 04:37:16;;;;;;;14.55;9.80;;;;;;;;;;5076587;28;20025;-44
2021/07/02 04:39:43;;;;;;;4.75;2.28;;;;;;;;;;5076381;28;20373;-44
2021/07/02 04:42:09;;;;;;;4.28;2.42;;;;;;;;;;5076273;28;20025;-43
2021/07/02 04:44:36;;;;;;;6.05;1.98;;;;;;;;;;5076056;28;20028;-44
2021/07/02 04:47:03;;;;;;;3.08;1.50;;;;;;;;;;5076273;28;20056;-44
2021/07/02 04:49:29;;;;;;;1.98;1.30;;;;;;;;;;5076580;28;20481;-44
2021/07/02 04:51:55;;;;;;;1.10;0.80;;;;;;;;;;5076291;28;20051;-43
2021/07/02 04:54:21;;;;;;;1.75;0.77;;;;;;;;;;5076263;28;20416;-43
2021/07/02 04:56:47;;;;;;;1.33;0.80;;;;;;;;;;5076032;28;20024;-44
2021/07/02 04:59:14;;;;;;;2.58;0.82;;;;;;;;;;5075887;28;20480;-43
2021/07/02 05:01:41;;;;;;;2.20;1.02;;;;;;;;;;5075864;28;20021;-43
2021/07/02 05:04:07;;;;;;;2.88;0.70;;;;;;;;;;5076038;28;20028;-44
2021/07/02 05:06:33;;;;;;;3.88;2.13;;;;;;;;;;5075800;28;20012;-45
2021/07/02 05:09:00;;;;;;;13.35;7.68;;;;;;;;;;5075859;28;20071;-44
2021/07/02 05:11:26;;;;;;;3.42;1.95;;;;;;;;;;5075806;28;20056;-45
2021/07/02 05:13:52;;;;;;;5.10;1.75;;;;;;;;;;5075368;28;20048;-44
2021/07/02 05:16:18;;;;;;;5.70;1.13;;;;;;;;;;5075741;28;20025;-45
2021/07/02 05:18:44;;;;;;;1.27;0.75;;;;;;;;;;5075638;28;20484;-45
2021/07/02 05:21:10;;;;;;;2.80;0.80;;;;;;;;;;5075687;28;20024;-45
2021/07/02 05:23:36;;;;;;;2.25;0.50;;;;;;;;;;5075774;28;20032;-44
2021/07/02 05:26:03;;;;;;;6.22;2.20;;;;;;;;;;5075398;28;20025;-44
2021/07/02 05:28:29;;;;;;;1.67;1.00;;;;;;;;;;5075597;28;20042;-44
2021/07/02 05:30:55;;;;;;;3.17;1.00;;;;;;;;;;5075254;28;20029;-44
2021/07/02 05:33:21;;;;;;;6.72;0.75;;;;;;;;;;5075495;28;20044;-43
2021/07/02 05:35:47;;;;;;;1.50;0.63;;;;;;;;;;5075362;28;20105;-44
2021/07/02 05:38:15;;;;;;;2.50;0.57;;;;;;;;;;5075291;28;20082;-43
2021/07/02 05:40:41;;;;;;;2.38;0.65;;;;;;;;;;5075201;28;20020;-44
2021/07/02 05:43:07;;;;;;;1.15;0.57;;;;;;;;;;5075109;28;20064;-43
2021/07/02 05:45:33;;;;;;;1.10;0.60;;;;;;;;;;5074976;28;20376;-44
2021/07/02 05:48:00;;;;;;;48.17;30.17;;;;;;;;;;5074671;28;20078;-43
2021/07/02 05:50:27;;;;;;;49.75;33.40;;;;;;;;;;5075245;28;20013;-44
2021/07/02 05:52:55;;;;;;;23.88;13.38;;;;;;;;;;5074858;28;20040;-43
2021/07/02 05:55:21;;;;;;;2.88;2.00;;;;;;;;;;5074990;28;20104;-44
2021/07/02 05:57:47;;;;;;;3.97;1.80;;;;;;;;;;5074826;28;20507;-43
2021/07/02 06:00:14;;;;;;;3.28;2.03;;;;;;;;;;5074709;28;20029;-44
2021/07/02 06:02:40;;;;;;;2.63;1.20;;;;;;;;;;5074936;28;20354;-43
2021/07/02 06:05:06;;;;;;;22.05;10.32;;;;;;;;;;5073539;28;20465;-43
2021/07/02 06:07:45;;;;;;;30.98;15.18;;;;;;;;;;5075007;28;20174;-43
2021/07/02 06:10:12;;;;;;;26.48;16.58;;;;;;;;;;5074774;28;20029;-43
2021/07/02 06:12:38;;;;;;;4.10;2.80;;;;;;;;;;5074565;28;20115;-44
2021/07/02 06:15:04;;;;;;;5.55;3.75;;;;;;;;;;5074312;28;20091;-44
2021/07/02 06:17:30;;;;;;;4.38;2.08;;;;;;;;;;5074470;28;20035;-43
2021/07/02 06:19:56;;;;;;;2.20;1.75;;;;;;;;;;5074472;28;20056;-43
2021/07/02 06:22:22;;;;;;;18.98;11.23;;;;;;;;;;5074567;28;20086;-43
2021/07/02 06:24:48;;;;;;;19.38;10.20;;;;;;;;;;5074359;28;20024;-43
2021/07/02 06:27:15;;;;;;;13.07;7.88;;;;;;;;;;5074395;28;20028;-44
2021/07/02 06:29:41;;;;;;;14.02;7.03;;;;;;;;;;5074632;28;20048;-44
2021/07/02 06:32:07;;;;;;;13.65;6.78;;;;;;;;;;5073958;28;20358;-44
2021/07/02 06:34:33;;;;;;;6.88;4.32;;;;;;;;;;5074101;28;20020;-43
2021/07/02 06:36:59;;;;;;;3.60;1.42;;;;;;;;;;5074136;28;20016;-44
2021/07/02 06:39:25;;;;;;;2.13;1.40;;;;;;;;;;5074254;28;20067;-44
2021/07/02 06:41:51;;;;;;;9.15;2.00;;;;;;;;;;5073893;28;20077;-44
2021/07/02 06:44:17;;;;;;;37.88;22.48;;;;;;;;;;5073707;28;20051;-43
2021/07/02 06:46:43;;;;;;;15.85;10.13;;;;;;;;;;5074120;28;20052;-43
2021/07/02 06:49:09;;;;;;;12.13;6.68;;;;;;;;;;5073838;28;20016;-43
2021/07/02 06:51:37;;;;;;;5.20;3.40;;;;;;;;;;5074038;28;20043;-43
2021/07/02 06:54:03;;;;;;;5.82;1.52;;;;;;;;;;5073806;28;20032;-43
2021/07/02 06:56:30;;;;;;;1.67;1.42;;;;;;;;;;5073735;28;20021;-43
2021/07/02 06:58:57;;;;;;;4.50;1.88;;;;;;;;;;5072702;28;20020;-43
2021/07/02 07:01:23;;;;;;;3.58;2.22;;;;;;;;;;5073653;28;20021;-43
2021/07/02 07:03:49;;;;;;;3.53;1.30;;;;;;;;;;5073831;28;20035;-43
2021/07/02 07:06:16;;;;;;;2.92;1.20;;;;;;;;;;5073818;28;20085;-43
2021/07/02 07:08:42;;;;;;;2.38;1.92;;;;;;;;;;5073755;28;20044;-43
2021/07/02 07:11:08;;;;;;;2.78;0.82;;;;;;;;;;5073679;28;20100;-43
2021/07/02 07:13:36;;;;;;;2.85;0.88;;;;;;;;;;5073299;28;20036;-43
2021/07/02 07:16:02;;;;;;;1.50;1.20;;;;;;;;;;5073622;28;20169;-43
2021/07/02 07:18:28;;;;;;;1.33;1.00;;;;;;;;;;5073468;28;20028;-43
2021/07/02 07:20:54;;;;;;;1.55;1.30;;;;;;;;;;5073526;28;20021;-43
2021/07/02 07:23:20;;;;;;;2.63;0.88;;;;;;;;;;5073332;28;20029;-43
2021/07/02 07:25:48;;;;;;;1.85;1.10;;;;;;;;;;5073587;28;20020;-43
2021/07/02 07:28:14;;;;;;;1.95;1.40;;;;;;;;;;5073381;28;20099;-43
2021/07/02 07:30:41;;;;;;;1.23;1.13;;;;;;;;;;5073235;28;20101;-43
2021/07/02 07:33:07;;;;;;;0.80;0.80;;;;;;;;;;5073096;28;20480;-43
2021/07/02 07:35:44;;;;;;;2.22;0.88;;;;;;;;;;5073332;28;20040;-43
2021/07/02 07:38:10;;;;;;;1.80;0.93;;;;;;;;;;5073106;28;20110;-43
2021/07/02 07:40:36;;;;;;;3.30;1.83;;;;;;;;;;5073230;28;20067;-43
2021/07/02 07:43:03;;;;;;;2.05;1.38;;;;;;;;;;5072995;28;20029;-43
2021/07/02 07:45:29;;;;;;;4.53;1.55;;;;;;;;;;5073321;28;20384;-43
2021/07/02 07:47:57;;;;;;;3.08;0.90;;;;;;;;;;5073311;28;20060;-43
2021/07/02 07:50:25;;;;;;;2.92;1.05;;;;;;;;;;5073235;28;20078;-44
2021/07/02 07:52:54;;;;;;;1.23;0.60;;;;;;;;;;5073069;28;20481;-43
2021/07/02 07:55:21;;;;;;;64.05;4.85;;;;;;;;;;5073124;28;20021;-43
2021/07/02 07:57:47;;;;;;;2.50;0.88;;;;;;;;;;5072897;28;20473;-43
2021/07/02 08:00:14;;;;;;;2.42;0.70;;;;;;;;;;5073059;28;20076;-43
2021/07/02 08:02:40;;;;;;;10.30;1.35;;;;;;;;;;5073058;28;20016;-43
2021/07/02 08:05:06;;;;;;;2.75;0.68;;;;;;;;;;5073066;28;20032;-43
2021/07/02 08:07:36;;;;;;;2.92;0.75;;;;;;;;;;5072995;28;20024;-43
2021/07/02 08:10:04;;;;;;;6.57;1.48;;;;;;;;;;5073850;28;20032;-43
2021/07/02 08:12:30;;;;;;;8.05;1.27;;;;;;;;;;5076638;28;20426;-44
2021/07/02 08:14:56;;;;;;;4.25;0.80;;;;;;;;;;5072201;28;20114;-44
2021/07/02 08:17:28;;;;;;;98.40;50.92;;;;;;;;;;5056215;28;20027;-43
2021/07/02 08:20:00;;;;;;;54.17;20.33;;;;;;;;;;5054105;28;20033;-43
2021/07/02 08:22:26;;;;;;;162.23;24.88;;;;;;;;;;5056000;28;20072;-43
2021/07/02 08:24:53;;;;;;;62.70;6.72;;;;;;;;;;5055812;28;20108;-42
2021/07/02 08:27:19;;;;;;;11.10;2.55;;;;;;;;;;5056350;28;20032;-42
2021/07/02 08:29:46;;;;;;;7.80;2.85;;;;;;;;;;5056019;28;20031;-43
2021/07/02 08:32:12;;;;;;;154.13;47.55;;;;;;;;;;5055783;28;20029;-41
2021/07/02 08:34:38;;;;;;;21.48;10.35;;;;;;;;;;5055844;28;20484;-42
2021/07/02 08:37:04;;;;;;;8.23;5.22;;;;;;;;;;5055551;28;20021;-43
2021/07/02 08:39:31;;;;;;;6.18;3.28;;;;;;;;;;5060660;28;20020;-44
2021/07/02 08:41:57;;;;;;;13.73;5.97;;;;;;;;;;5075969;28;20017;-44
2021/07/02 08:44:23;;;;;;;13.05;4.47;;;;;;;;;;5075852;28;20439;-45
2021/07/02 08:46:50;;;;;;;54.53;33.47;;;;;;;;;;5075921;28;20031;-44
2021/07/02 08:49:18;;;;;;;20.65;11.63;;;;;;;;;;5076019;28;20533;-42
2021/07/02 08:51:44;;;;;;;60.47;30.65;;;;;;;;;;5076131;28;20093;-43
2021/07/02 08:54:14;;;;;;;54.03;22.95;;;;;;;;;;5075786;28;20544;-42
2021/07/02 08:56:55;;;;;;;9.63;6.85;;;;;;;;;;5075891;28;20017;-42
2021/07/02 08:59:22;;;;;;;11.63;4.00;;;;;;;;;;5076170;28;20048;-42
2021/07/02 09:01:48;;;;;;;14.32;7.32;;;;;;;;;;5075897;28;20020;-42
2021/07/02 09:04:15;;;;;;;7.18;4.45;;;;;;;;;;5075902;28;20028;-43
2021/07/02 09:06:42;;;;;;;61.90;42.42;;;;;;;;;;5075816;28;20105;-43
2021/07/02 09:09:09;;;;;;;13.02;8.30;;;;;;;;;;5074962;28;20028;-44
2021/07/02 09:11:36;;;;;;;7.95;5.55;;;;;;;;;;5075966;28;20024;-48
2021/07/02 09:14:07;;;;;;;14.93;5.32;;;;;;;;;;5075399;28;20051;-45
2021/07/02 09:16:38;;;;;;;33.10;17.40;;;;;;;;;;5075744;28;20099;-42
2021/07/02 09:19:23;;;;;;;58.13;16.45;;;;;;;;;;5074657;28;20028;-43
2021/07/02 09:21:49;;;;;;;28.08;8.38;;;;;;;;;;5074333;28;20096;-46
2021/07/02 09:24:35;;;;;;;15.93;7.68;;;;;;;;;;5075517;28;20082;-44
2021/07/02 09:27:04;;;;;;;17.52;8.65;;;;;;;;;;5075316;28;20025;-45
2021/07/02 09:29:30;;;;;;;155.85;79.03;;;;;;;;;;5075343;28;20037;-43
2021/07/02 09:32:00;;;;;;;26.52;13.55;;;;;;;;;;5075154;28;20381;-43
2021/07/02 09:34:45;;;;;;;19.88;9.15;;;;;;;;;;5075189;28;20506;-42
2021/07/02 09:37:26;;;;;;;40.45;16.42;;;;;;;;;;5075339;28;20037;-43
2021/07/02 09:39:52;;;;;;;54.45;24.33;;;;;;;;;;5074694;28;20467;-44
2021/07/02 09:42:26;;;;;;;73.47;40.22;;;;;;;;;;5075018;28;20028;-43
2021/07/02 09:45:04;;;;;;;136.60;71.43;;;;;;;;;;5074914;28;20036;-43
2021/07/02 09:47:32;;;;;;;24.98;12.70;;;;;;;;;;5074915;28;20047;-43
2021/07/02 09:50:13;;;;;;;85.20;50.42;;;;;;;;;;5075102;28;20029;-44
2021/07/02 09:52:50;;;;;;;37.63;20.50;;;;;;;;;;5074902;28;20032;-44
2021/07/02 09:55:20;;;;;;;50.13;32.03;;;;;;;;;;5074767;28;20020;-43
2021/07/02 09:57:46;;;;;;;16.58;10.10;;;;;;;;;;5074857;28;20036;-44
2021/07/02 10:00:14;;;;;;;81.72;48.05;;;;;;;;;;5074811;28;20024;-43
2021/07/02 10:02:50;;;;;;;18.50;11.35;;;;;;;;;;5074630;28;20074;-44
2021/07/02 10:05:16;;;;;;;36.60;20.23;;;;;;;;;;5074481;28;20032;-43
2021/07/02 10:07:54;;;;;;;33.25;21.23;;;;;;;;;;5074606;28;20430;-43
2021/07/02 10:10:20;;;;;;;15.63;9.02;;;;;;;;;;5073971;28;20024;-42
2021/07/02 10:12:47;;;;;;;23.35;13.48;;;;;;;;;;5074110;28;20060;-44
2021/07/02 10:15:13;;;;;;;120.10;34.90;;;;;;;;;;5074229;28;20508;-44
2021/07/02 10:17:39;;;;;;;40.88;17.13;;;;;;;;;;5074147;28;20103;-44
2021/07/02 10:20:06;;;;;;;33.13;12.35;;;;;;;;;;5074221;28;20067;-44
2021/07/02 10:22:33;;;;;;;50.95;19.13;;;;;;;;;;5074299;28;20017;-42
2021/07/02 10:25:02;;;;;;;13.80;5.75;;;;;;;;;;5074139;28;20077;-44
2021/07/02 10:27:28;;;;;;;6.90;3.55;;;;;;;;;;5073201;28;20081;-43
2021/07/02 10:29:54;;;;;;;22.83;9.20;;;;;;;;;;5074120;28;20027;-43
2021/07/02 10:32:21;;;;;;;6.05;3.45;;;;;;;;;;5073949;28;20044;-43
2021/07/02 10:34:47;;;;;;;33.60;15.20;;;;;;;;;;5073704;28;20020;-43
2021/07/02 10:37:14;;;;;;;7.75;3.03;;;;;;;;;;5073819;28;20033;-43
2021/07/02 10:39:44;;;;;;;4.07;1.60;;;;;;;;;;5073447;28;20027;-43
2021/07/02 10:42:14;;;;;;;6.57;3.57;;;;;;;;;;5073990;28;20388;-43
2021/07/02 10:45:02;;;;;;;3.43;1.97;;;;;;;;;;5073961;28;20261;-43
2021/07/02 10:47:28;;;;;;;13.82;6.05;;;;;;;;;;5065810;28;20620;-43
2021/07/02 10:49:55;;;;;;;7.75;1.75;;;;;;;;;;5073798;28;20099;-44
2021/07/02 10:52:25;;;;;;;4.18;2.38;;;;;;;;;;5073564;28;20078;-43
2021/07/02 10:54:52;;;;;;;9.77;4.25;;;;;;;;;;5073832;28;20074;-43
2021/07/02 10:57:19;;;;;;;9.95;5.07;;;;;;;;;;5073381;28;20036;-43
2021/07/02 10:59:55;;;;;;;6.15;3.03;;;;;;;;;;5073821;28;20025;-43
2021/07/02 11:02:22;;;;;;;2.13;1.58;;;;;;;;;;5073423;28;20028;-43
2021/07/02 11:04:48;;;;;;;6.93;2.30;;;;;;;;;;5073387;28;20028;-43
2021/07/02 11:07:26;;;;;;;6.03;2.45;;;;;;;;;;5073412;28;20016;-43
2021/07/02 11:09:53;;;;;;;3.63;1.38;;;;;;;;;;5072987;28;20031;-43
2021/07/02 11:12:24;;;;;;;2.13;1.10;;;;;;;;;;5073278;28;20108;-43
2021/07/02 11:15:02;;;;;;;1.40;0.98;;;;;;;;;;5073330;28;20083;-43
2021/07/02 11:17:29;;;;;;;5.95;3.30;;;;;;;;;;5073555;28;20033;-44
2021/07/02 11:20:07;;;;;;;35.40;23.02;;;;;;;;;;5073317;28;20028;-44
2021/07/02 11:22:57;;;;;;;11.40;7.43;;;;;;;;;;5073292;28;20059;-44
2021/07/02 11:25:28;;;;;;;3.42;2.05;;;;;;;;;;5073211;28;20033;-44
2021/07/02 11:27:56;;;;;;;12.50;7.97;;;;;;;;;;5073083;28;20086;-42
2021/07/02 11:30:23;;;;;;;47.58;29.63;;;;;;;;;;5073486;28;20448;-44
2021/07/02 11:32:50;;;;;;;19.27;9.48;;;;;;;;;;5072933;28;20041;-44
2021/07/02 11:35:17;;;;;;;8.18;5.38;;;;;;;;;;5071923;28;20086;-44
2021/07/02 11:38:02;;;;;;;71.72;42.88;;;;;;;;;;5073276;28;20099;-44
2021/07/02 11:40:28;;;;;;;33.20;19.45;;;;;;;;;;5071394;28;20457;-46
2021/07/02 11:42:54;;;;;;;29.17;17.60;;;;;;;;;;5073113;28;20063;-44
2021/07/02 11:45:21;;;;;;;44.58;25.85;;;;;;;;;;5075218;28;20124;-44
2021/07/02 11:47:48;;;;;;;48.55;30.58;;;;;;;;;;5079850;28;20095;-42
2021/07/02 11:50:14;;;;;;;50.35;32.05;;;;;;;;;;5079797;28;20085;-42
2021/07/02 11:52:40;;;;;;;73.80;49.30;;;;;;;;;;5079711;28;20039;-43
2021/07/02 11:55:06;;;;;;;78.93;52.90;;;;;;;;;;5079565;28;20028;-44
2021/07/02 11:57:32;;;;;;;50.55;32.88;;;;;;;;;;5079836;28;20047;-46
2021/07/02 12:00:00;;;;;;;24.92;13.88;;;;;;;;;;5079706;28;20102;-44
2021/07/02 12:02:27;;;;;;;115.40;74.20;;;;;;;;;;5079849;28;20106;-47
2021/07/02 12:05:04;;;;;;;10.65;7.88;;;;;;;;;;5079619;28;20040;-41
2021/07/02 12:07:30;;;;;;;56.20;36.88;;;;;;;;;;5079573;28;20109;-44
2021/07/02 12:09:56;;;;;;;6.30;4.30;;;;;;;;;;5078976;28;20029;-45
2021/07/02 12:12:22;;;;;;;4.05;2.60;;;;;;;;;;5067643;28;20034;-43
2021/07/02 12:14:48;;;;;;;5.25;3.22;;;;;;;;;;5029798;28;20053;-40
2021/07/02 12:17:15;;;;;;;17.58;10.63;;;;;;;;;;5028438;28;20136;-40
2021/07/02 12:19:41;;;;;;;28.63;15.20;;;;;;;;;;5028461;28;20029;-41
2021/07/02 12:22:11;;;;;;;41.15;19.27;;;;;;;;;;5028348;28;20078;-42
2021/07/02 12:24:38;;;;;;;34.20;14.52;;;;;;;;;;5043272;28;20156;-43
2021/07/02 12:27:05;;;;;;;11.40;4.03;;;;;;;;;;5028306;28;20025;-47
2021/07/02 12:29:32;;;;;;;93.85;53.53;;;;;;;;;;5029605;28;20024;-42
2021/07/02 12:32:00;;;;;;;42.25;20.85;;;;;;;;;;5028222;28;20017;-43
2021/07/02 12:34:28;;;;;;;114.00;75.55;;;;;;;;;;5028127;28;20064;-43
2021/07/02 12:37:03;;;;;;;81.20;50.30;;;;;;;;;;5028903;28;20029;-43
2021/07/02 12:39:33;;;;;;;9.82;5.82;;;;;;;;;;5028354;28;20507;-43
2021/07/02 12:42:03;;;;;;;54.22;33.75;;;;;;;;;;5028269;28;20025;-42
2021/07/02 12:44:31;;;;;;;35.38;18.48;;;;;;;;;;5028083;28;20083;-43
2021/07/02 12:46:58;;;;;;;243.85;157.38;;;;;;;;;;5028416;28;20036;-43
2021/07/02 12:49:29;;;;;;;153.50;112.15;;;;;;;;;;5028222;28;20025;-44
2021/07/02 12:57:15;;;;;;;194.45;145.50;;;;;;;;;;5025991;28;20026;-43
2021/07/02 13:00:07;;;;;;;60.42;35.35;;;;;;;;;;5024933;28;20057;-45
2021/07/02 13:02:35;;;;;;;29.33;17.80;;;;;;;;;;5025131;28;20049;-44
2021/07/02 13:05:10;;;;;;;27.67;17.52;;;;;;;;;;5034519;28;20517;-42
2021/07/02 13:07:45;;;;;;;14.63;6.25;;;;;;;;;;5024924;28;20358;-42
2021/07/02 13:10:12;;;;;;;12.95;9.13;;;;;;;;;;5025123;28;20025;-41
2021/07/02 13:12:39;;;;;;;135.88;69.00;;;;;;;;;;5022204;28;20122;-42
2021/07/02 13:15:08;;;;;;;119.50;76.25;;;;;;;;;;5024762;28;20130;-45
2021/07/02 13:17:41;;;;;;;180.27;115.05;;;;;;;;;;5025553;28;20029;-42
2021/07/02 13:20:08;;;;;;;24.23;14.25;;;;;;;;;;5024556;28;20025;-44
2021/07/02 13:22:34;;;;;;;11.23;4.35;;;;;;;;;;5024647;28;20061;-43
2021/07/02 13:25:07;;;;;;;4.53;2.97;;;;;;;;;;5024469;28;20025;-44
2021/07/02 13:27:33;;;;;;;3.33;2.33;;;;;;;;;;5025554;28;20056;-43
2021/07/02 13:30:04;;;;;;;8.25;2.55;;;;;;;;;;5024884;28;20024;-43
2021/07/02 13:32:30;;;;;;;;;;;;;;;;;;5024717;28;20502;-41
2021/07/02 13:34:56;;;;;;;12.35;3.50;;;;;;;;;;5024335;28;19909;-43
2021/07/02 13:37:27;;;;;;;4.35;2.25;;;;;;;;;;5024363;28;20579;-42
2021/07/02 13:39:53;;;;;;;5.07;1.77;;;;;;;;;;5025203;28;20029;-42
2021/07/02 13:42:25;;;;;;;2.28;1.75;;;;;;;;;;5025488;28;20432;-42
2021/07/02 13:44:59;;;;;;;3.60;1.45;;;;;;;;;;5023972;28;20453;-42
2021/07/02 13:47:27;;;;;;;1.45;0.95;;;;;;;;;;5024050;28;20390;-43
2021/07/02 13:49:53;;;;;;;3.00;1.77;;;;;;;;;;5023768;28;20025;-45
2021/07/02 13:52:19;;;;;;;24.15;1.77;;;;;;;;;;5024762;28;20365;-43
2021/07/02 13:54:45;;;;;;;4.80;1.10;;;;;;;;;;5023998;28;20543;-43
2021/07/02 13:57:12;;;;;;;1.35;1.08;;;;;;;;;;5023557;28;20435;-43
2021/07/02 13:59:39;;;;;;;49.60;34.80;;;;;;;;;;5024960;28;20087;-43
2021/07/02 14:02:06;;;;;;;39.25;20.00;;;;;;;;;;5023701;28;20041;-44
2021/07/02 14:04:32;;;;;;;80.50;54.38;;;;;;;;;;5023581;28;20430;-42
2021/07/02 14:06:58;;;;;;;29.73;20.58;;;;;;;;;;5021221;28;20350;-45
2021/07/02 14:09:24;;;;;;;10.45;8.02;;;;;;;;;;5023096;28;20061;-43
2021/07/02 14:11:50;;;;;;;8.35;6.30;;;;;;;;;;5024675;28;20651;-43
2021/07/02 14:14:18;;;;;;;55.47;27.17;;;;;;;;;;5023408;28;20091;-45
2021/07/02 14:16:45;;;;;;;68.60;31.33;;;;;;;;;;5024968;28;20809;-44
2021/07/02 14:19:11;;;;;;;48.28;34.45;;;;;;;;;;5023459;28;20033;-44
2021/07/02 14:21:39;;;;;;;5.90;4.28;;;;;;;;;;5023295;28;20021;-44
2021/07/02 14:24:06;;;;;;;9.38;5.07;;;;;;;;;;5023523;28;20036;-43
2021/07/02 14:26:34;;;;;;;11.18;7.47;;;;;;;;;;5023357;28;20017;-43
2021/07/02 14:29:00;;;;;;;197.48;131.15;;;;;;;;;;5023206;28;20029;-45
2021/07/02 14:31:26;;;;;;;15.30;10.85;;;;;;;;;;5024100;28;20095;-43
2021/07/02 14:33:52;;;;;;;58.35;31.17;;;;;;;;;;5023026;28;20045;-45
2021/07/02 14:36:19;;;;;;;35.58;21.60;;;;;;;;;;5023236;28;20025;-44
2021/07/02 14:38:45;;;;;;;32.55;21.98;;;;;;;;;;5023108;28;20029;-43